Holden Village, Washington
Current Conditions -  °F | °C
As of 10:07 AM on Sunday 25 Jan 2015 (Local Time) from KEAT Reporting Station
Moderate Fog Moderate Fog  
Wind Chill: 35°   Ceiling: 200
Heat Index: 35°   Visibility: 0.25mi
Dew Point: 34°   Wind: 0mph
Humidity: 96%   Direction: NA
Pressure: 30.27"   Gusts: NA
Location:  47.9044°N, 120.153°W
Report Text: KEAT 251807Z AUTO 00000KT 1/4SM FG VV002 02/01 A3027 RMK AO2 T00170011 $
Loading
Personal Weather Stations






























Interactive Weather Map New forecast layout! Learn more

10-Day Weather Forecast

Advertisements
Track Severe Weather on mobile